sensor_id;sensor_type;location;lat;lon;timestamp;P1;durP1;ratioP1;P2;durP2;ratioP2
76935;SDS011;65881;52.438;16.744;2023-04-28T00:01:48;35.78;;;20.50;;
76935;SDS011;65881;52.438;16.744;2023-04-28T00:04:14;35.75;;;19.70;;
76935;SDS011;65881;52.438;16.744;2023-04-28T00:06:43;36.25;;;19.73;;
76935;SDS011;65881;52.438;16.744;2023-04-28T00:09:09;37.00;;;20.20;;
76935;SDS011;65881;52.438;16.744;2023-04-28T00:11:35;33.88;;;19.00;;
76935;SDS011;65881;52.438;16.744;2023-04-28T00:14:03;36.58;;;19.15;;
76935;SDS011;65881;52.438;16.744;2023-04-28T00:16:29;31.98;;;20.13;;
76935;SDS011;65881;52.438;16.744;2023-04-28T00:18:54;42.20;;;19.98;;
76935;SDS011;65881;52.438;16.744;2023-04-28T00:21:21;34.83;;;19.25;;
76935;SDS011;65881;52.438;16.744;2023-04-28T00:23:47;37.20;;;20.13;;
76935;SDS011;65881;52.438;16.744;2023-04-28T00:26:12;33.58;;;19.63;;
76935;SDS011;65881;52.438;16.744;2023-04-28T00:28:38;39.65;;;19.90;;
76935;SDS011;65881;52.438;16.744;2023-04-28T00:31:09;35.17;;;20.02;;
76935;SDS011;65881;52.438;16.744;2023-04-28T00:33:39;32.75;;;17.95;;
76935;SDS011;65881;52.438;16.744;2023-04-28T00:36:05;39.20;;;20.63;;
76935;SDS011;65881;52.438;16.744;2023-04-28T00:38:31;30.55;;;18.55;;
76935;SDS011;65881;52.438;16.744;2023-04-28T00:40:57;31.08;;;18.73;;
76935;SDS011;65881;52.438;16.744;2023-04-28T00:43:23;32.70;;;18.38;;
76935;SDS011;65881;52.438;16.744;2023-04-28T00:45:49;39.25;;;20.35;;
76935;SDS011;65881;52.438;16.744;2023-04-28T00:48:16;38.63;;;19.10;;
76935;SDS011;65881;52.438;16.744;2023-04-28T00:50:45;33.75;;;20.00;;
76935;SDS011;65881;52.438;16.744;2023-04-28T00:53:12;31.88;;;18.13;;
76935;SDS011;65881;52.438;16.744;2023-04-28T00:55:38;37.88;;;22.13;;
76935;SDS011;65881;52.438;16.744;2023-04-28T00:58:07;36.15;;;21.00;;
76935;SDS011;65881;52.438;16.744;2023-04-28T01:00:33;37.55;;;20.45;;
76935;SDS011;65881;52.438;16.744;2023-04-28T01:02:59;34.30;;;20.27;;
76935;SDS011;65881;52.438;16.744;2023-04-28T01:05:26;37.10;;;21.42;;
76935;SDS011;65881;52.438;16.744;2023-04-28T01:07:55;43.47;;;19.90;;
76935;SDS011;65881;52.438;16.744;2023-04-28T01:10:21;35.10;;;19.50;;
76935;SDS011;65881;52.438;16.744;2023-04-28T01:12:47;33.28;;;19.15;;
76935;SDS011;65881;52.438;16.744;2023-04-28T01:15:16;38.75;;;21.30;;
76935;SDS011;65881;52.438;16.744;2023-04-28T01:17:42;35.97;;;20.60;;
76935;SDS011;65881;52.438;16.744;2023-04-28T01:20:09;36.90;;;21.52;;
76935;SDS011;65881;52.438;16.744;2023-04-28T01:22:35;37.50;;;20.23;;
76935;SDS011;65881;52.438;16.744;2023-04-28T01:25:01;38.78;;;21.40;;
76935;SDS011;65881;52.438;16.744;2023-04-28T01:27:28;47.53;;;23.67;;
76935;SDS011;65881;52.438;16.744;2023-04-28T01:29:53;41.70;;;22.92;;
76935;SDS011;65881;52.438;16.744;2023-04-28T01:32:19;40.15;;;24.15;;
76935;SDS011;65881;52.438;16.744;2023-04-28T01:34:45;45.85;;;24.70;;
76935;SDS011;65881;52.438;16.744;2023-04-28T01:37:11;43.95;;;22.08;;
76935;SDS011;65881;52.438;16.744;2023-04-28T01:39:37;36.08;;;23.08;;
76935;SDS011;65881;52.438;16.744;2023-04-28T01:42:08;38.17;;;20.67;;
76935;SDS011;65881;52.438;16.744;2023-04-28T01:44:34;40.22;;;21.35;;
76935;SDS011;65881;52.438;16.744;2023-04-28T01:47:00;43.75;;;22.38;;
76935;SDS011;65881;52.438;16.744;2023-04-28T01:49:26;44.35;;;23.55;;
76935;SDS011;65881;52.438;16.744;2023-04-28T01:51:51;42.28;;;23.58;;
76935;SDS011;65881;52.438;16.744;2023-04-28T01:54:17;43.38;;;22.08;;
76935;SDS011;65881;52.438;16.744;2023-04-28T01:56:43;38.45;;;21.55;;
76935;SDS011;65881;52.438;16.744;2023-04-28T01:59:08;42.33;;;21.75;;
76935;SDS011;65881;52.438;16.744;2023-04-28T02:01:34;41.47;;;22.35;;
76935;SDS011;65881;52.438;16.744;2023-04-28T02:04:00;47.70;;;24.13;;
76935;SDS011;65881;52.438;16.744;2023-04-28T02:06:25;43.47;;;23.13;;
76935;SDS011;65881;52.438;16.744;2023-04-28T02:08:52;47.00;;;24.35;;
76935;SDS011;65881;52.438;16.744;2023-04-28T02:11:17;48.90;;;24.05;;
76935;SDS011;65881;52.438;16.744;2023-04-28T02:13:43;44.60;;;23.88;;
76935;SDS011;65881;52.438;16.744;2023-04-28T02:16:08;40.13;;;22.25;;
76935;SDS011;65881;52.438;16.744;2023-04-28T02:18:34;39.67;;;21.92;;
76935;SDS011;65881;52.438;16.744;2023-04-28T02:21:12;39.10;;;21.40;;
76935;SDS011;65881;52.438;16.744;2023-04-28T02:23:38;35.47;;;20.77;;
76935;SDS011;65881;52.438;16.744;2023-04-28T02:26:04;41.38;;;22.92;;
76935;SDS011;65881;52.438;16.744;2023-04-28T02:28:30;45.40;;;22.15;;
76935;SDS011;65881;52.438;16.744;2023-04-28T02:31:06;39.13;;;20.40;;
76935;SDS011;65881;52.438;16.744;2023-04-28T02:33:33;37.85;;;20.95;;
76935;SDS011;65881;52.438;16.744;2023-04-28T02:36:00;40.15;;;22.15;;
76935;SDS011;65881;52.438;16.744;2023-04-28T02:38:27;40.25;;;22.63;;
76935;SDS011;65881;52.438;16.744;2023-04-28T02:40:59;41.35;;;21.20;;
76935;SDS011;65881;52.438;16.744;2023-04-28T02:43:26;42.42;;;22.02;;
76935;SDS011;65881;52.438;16.744;2023-04-28T02:45:53;35.15;;;21.98;;
76935;SDS011;65881;52.438;16.744;2023-04-28T02:48:19;43.53;;;21.00;;
76935;SDS011;65881;52.438;16.744;2023-04-28T02:50:44;36.95;;;21.98;;
76935;SDS011;65881;52.438;16.744;2023-04-28T02:53:10;31.10;;;20.42;;
76935;SDS011;65881;52.438;16.744;2023-04-28T02:55:36;39.90;;;21.63;;
76935;SDS011;65881;52.438;16.744;2023-04-28T02:58:02;45.33;;;22.30;;
76935;SDS011;65881;52.438;16.744;2023-04-28T03:00:28;39.58;;;20.20;;
76935;SDS011;65881;52.438;16.744;2023-04-28T03:02:54;39.55;;;21.05;;
76935;SDS011;65881;52.438;16.744;2023-04-28T03:05:19;37.05;;;21.35;;
76935;SDS011;65881;52.438;16.744;2023-04-28T03:07:45;35.83;;;20.20;;
76935;SDS011;65881;52.438;16.744;2023-04-28T03:10:11;38.60;;;22.48;;
76935;SDS011;65881;52.438;16.744;2023-04-28T03:12:36;40.00;;;21.70;;
76935;SDS011;65881;52.438;16.744;2023-04-28T03:15:02;52.63;;;25.20;;
76935;SDS011;65881;52.438;16.744;2023-04-28T03:17:28;40.80;;;22.77;;
76935;SDS011;65881;52.438;16.744;2023-04-28T03:19:54;40.17;;;21.30;;
76935;SDS011;65881;52.438;16.744;2023-04-28T03:22:20;39.10;;;22.88;;
76935;SDS011;65881;52.438;16.744;2023-04-28T03:24:45;35.50;;;21.63;;
76935;SDS011;65881;52.438;16.744;2023-04-28T03:27:11;40.65;;;22.10;;
76935;SDS011;65881;52.438;16.744;2023-04-28T03:29:37;39.78;;;23.60;;
76935;SDS011;65881;52.438;16.744;2023-04-28T03:32:02;40.10;;;22.55;;
76935;SDS011;65881;52.438;16.744;2023-04-28T03:34:28;37.83;;;23.30;;
76935;SDS011;65881;52.438;16.744;2023-04-28T03:36:53;41.38;;;24.10;;
76935;SDS011;65881;52.438;16.744;2023-04-28T03:39:19;41.88;;;21.55;;
76935;SDS011;65881;52.438;16.744;2023-04-28T03:41:45;39.30;;;22.40;;
76935;SDS011;65881;52.438;16.744;2023-04-28T03:44:11;38.28;;;20.95;;
76935;SDS011;65881;52.438;16.744;2023-04-28T03:46:36;36.60;;;21.98;;
76935;SDS011;65881;52.438;16.744;2023-04-28T03:49:02;39.15;;;20.95;;
76935;SDS011;65881;52.438;16.744;2023-04-28T03:51:28;44.53;;;22.60;;
76935;SDS011;65881;52.438;16.744;2023-04-28T03:53:54;39.83;;;20.25;;
76935;SDS011;65881;52.438;16.744;2023-04-28T03:56:20;43.85;;;22.42;;
76935;SDS011;65881;52.438;16.744;2023-04-28T03:58:46;44.15;;;22.48;;
76935;SDS011;65881;52.438;16.744;2023-04-28T04:01:11;44.28;;;24.45;;
76935;SDS011;65881;52.438;16.744;2023-04-28T04:03:37;40.03;;;22.42;;
76935;SDS011;65881;52.438;16.744;2023-04-28T04:06:03;49.65;;;24.58;;
76935;SDS011;65881;52.438;16.744;2023-04-28T04:08:29;44.17;;;23.90;;
76935;SDS011;65881;52.438;16.744;2023-04-28T04:10:56;41.03;;;21.98;;
76935;SDS011;65881;52.438;16.744;2023-04-28T04:13:22;39.85;;;22.17;;
76935;SDS011;65881;52.438;16.744;2023-04-28T04:15:48;40.10;;;20.83;;
76935;SDS011;65881;52.438;16.744;2023-04-28T04:18:14;42.20;;;23.40;;
76935;SDS011;65881;52.438;16.744;2023-04-28T04:20:40;40.15;;;22.95;;
76935;SDS011;65881;52.438;16.744;2023-04-28T04:23:06;41.97;;;24.33;;
76935;SDS011;65881;52.438;16.744;2023-04-28T04:25:32;41.90;;;23.60;;
76935;SDS011;65881;52.438;16.744;2023-04-28T04:27:58;43.35;;;26.10;;
76935;SDS011;65881;52.438;16.744;2023-04-28T04:30:23;35.40;;;23.15;;
76935;SDS011;65881;52.438;16.744;2023-04-28T04:32:49;38.53;;;25.35;;
76935;SDS011;65881;52.438;16.744;2023-04-28T04:35:15;54.28;;;27.73;;
76935;SDS011;65881;52.438;16.744;2023-04-28T04:37:41;44.45;;;26.63;;
76935;SDS011;65881;52.438;16.744;2023-04-28T04:40:07;47.67;;;26.25;;
76935;SDS011;65881;52.438;16.744;2023-04-28T04:42:34;52.50;;;27.25;;
76935;SDS011;65881;52.438;16.744;2023-04-28T04:45:00;46.10;;;26.25;;
76935;SDS011;65881;52.438;16.744;2023-04-28T04:47:25;50.10;;;28.35;;
76935;SDS011;65881;52.438;16.744;2023-04-28T04:49:52;46.33;;;27.75;;
76935;SDS011;65881;52.438;16.744;2023-04-28T04:52:18;58.58;;;27.77;;
76935;SDS011;65881;52.438;16.744;2023-04-28T04:54:44;53.75;;;26.85;;
76935;SDS011;65881;52.438;16.744;2023-04-28T04:57:16;46.40;;;27.15;;
76935;SDS011;65881;52.438;16.744;2023-04-28T04:59:42;46.78;;;27.33;;
76935;SDS011;65881;52.438;16.744;2023-04-28T05:02:08;43.88;;;25.65;;
76935;SDS011;65881;52.438;16.744;2023-04-28T05:04:42;52.25;;;30.35;;
76935;SDS011;65881;52.438;16.744;2023-04-28T05:07:08;54.97;;;28.33;;
76935;SDS011;65881;52.438;16.744;2023-04-28T05:09:33;50.67;;;28.27;;
76935;SDS011;65881;52.438;16.744;2023-04-28T05:14:54;53.85;;;29.65;;
76935;SDS011;65881;52.438;16.744;2023-04-28T05:17:20;53.25;;;31.45;;
76935;SDS011;65881;52.438;16.744;2023-04-28T05:19:47;60.97;;;33.28;;
76935;SDS011;65881;52.438;16.744;2023-04-28T05:22:13;70.25;;;36.40;;
76935;SDS011;65881;52.438;16.744;2023-04-28T05:24:38;62.55;;;35.17;;
76935;SDS011;65881;52.438;16.744;2023-04-28T05:27:04;58.95;;;31.10;;
76935;SDS011;65881;52.438;16.744;2023-04-28T05:29:30;61.50;;;31.25;;
76935;SDS011;65881;52.438;16.744;2023-04-28T05:31:55;70.25;;;34.58;;
76935;SDS011;65881;52.438;16.744;2023-04-28T05:34:21;65.90;;;34.58;;
76935;SDS011;65881;52.438;16.744;2023-04-28T05:36:47;54.45;;;35.08;;
76935;SDS011;65881;52.438;16.744;2023-04-28T05:39:15;56.03;;;33.60;;
76935;SDS011;65881;52.438;16.744;2023-04-28T05:41:41;59.15;;;30.70;;
76935;SDS011;65881;52.438;16.744;2023-04-28T05:44:07;50.75;;;31.60;;
76935;SDS011;65881;52.438;16.744;2023-04-28T05:46:33;57.45;;;32.15;;
76935;SDS011;65881;52.438;16.744;2023-04-28T05:48:58;46.25;;;27.90;;
76935;SDS011;65881;52.438;16.744;2023-04-28T05:51:24;48.90;;;27.92;;
76935;SDS011;65881;52.438;16.744;2023-04-28T05:53:51;42.45;;;26.73;;
76935;SDS011;65881;52.438;16.744;2023-04-28T05:56:16;52.92;;;28.40;;
76935;SDS011;65881;52.438;16.744;2023-04-28T05:58:42;54.08;;;27.08;;
76935;SDS011;65881;52.438;16.744;2023-04-28T06:01:11;43.72;;;25.50;;
76935;SDS011;65881;52.438;16.744;2023-04-28T06:03:37;38.30;;;22.95;;
76935;SDS011;65881;52.438;16.744;2023-04-28T06:06:05;42.67;;;23.50;;
76935;SDS011;65881;52.438;16.744;2023-04-28T06:08:31;35.88;;;21.40;;
76935;SDS011;65881;52.438;16.744;2023-04-28T06:10:57;31.58;;;21.08;;
76935;SDS011;65881;52.438;16.744;2023-04-28T06:13:23;32.35;;;19.85;;
76935;SDS011;65881;52.438;16.744;2023-04-28T06:15:48;35.10;;;20.05;;
76935;SDS011;65881;52.438;16.744;2023-04-28T06:18:14;29.85;;;17.65;;
76935;SDS011;65881;52.438;16.744;2023-04-28T06:20:40;26.92;;;16.42;;
76935;SDS011;65881;52.438;16.744;2023-04-28T06:23:06;16.33;;;11.68;;
76935;SDS011;65881;52.438;16.744;2023-04-28T06:25:33;21.88;;;13.30;;
76935;SDS011;65881;52.438;16.744;2023-04-28T06:28:00;21.90;;;11.55;;
76935;SDS011;65881;52.438;16.744;2023-04-28T06:30:27;17.25;;;10.23;;
76935;SDS011;65881;52.438;16.744;2023-04-28T06:32:53;12.52;;;8.02;;
76935;SDS011;65881;52.438;16.744;2023-04-28T06:35:20;12.73;;;7.72;;
76935;SDS011;65881;52.438;16.744;2023-04-28T06:37:46;18.30;;;8.27;;
76935;SDS011;65881;52.438;16.744;2023-04-28T06:40:12;12.00;;;7.18;;
76935;SDS011;65881;52.438;16.744;2023-04-28T06:42:37;12.57;;;7.32;;
76935;SDS011;65881;52.438;16.744;2023-04-28T06:45:03;8.13;;;6.57;;
76935;SDS011;65881;52.438;16.744;2023-04-28T06:47:29;12.30;;;6.82;;
76935;SDS011;65881;52.438;16.744;2023-04-28T06:49:54;10.45;;;6.18;;
76935;SDS011;65881;52.438;16.744;2023-04-28T06:52:20;17.73;;;8.15;;
76935;SDS011;65881;52.438;16.744;2023-04-28T06:54:46;12.98;;;7.80;;
76935;SDS011;65881;52.438;16.744;2023-04-28T06:57:12;12.98;;;7.70;;
76935;SDS011;65881;52.438;16.744;2023-04-28T06:59:38;14.57;;;7.30;;
76935;SDS011;65881;52.438;16.744;2023-04-28T07:02:03;8.32;;;6.18;;
76935;SDS011;65881;52.438;16.744;2023-04-28T07:07:07;7.57;;;5.20;;
76935;SDS011;65881;52.438;16.744;2023-04-28T07:09:34;7.53;;;5.65;;
76935;SDS011;65881;52.438;16.744;2023-04-28T07:12:00;10.25;;;6.00;;
76935;SDS011;65881;52.438;16.744;2023-04-28T07:14:27;11.13;;;6.57;;
76935;SDS011;65881;52.438;16.744;2023-04-28T07:16:53;7.20;;;5.10;;
76935;SDS011;65881;52.438;16.744;2023-04-28T07:19:19;10.40;;;5.80;;
76935;SDS011;65881;52.438;16.744;2023-04-28T07:21:45;14.05;;;6.13;;
76935;SDS011;65881;52.438;16.744;2023-04-28T07:24:11;17.02;;;6.03;;
76935;SDS011;65881;52.438;16.744;2023-04-28T07:26:36;9.05;;;5.88;;
76935;SDS011;65881;52.438;16.744;2023-04-28T07:29:02;8.02;;;4.97;;
76935;SDS011;65881;52.438;16.744;2023-04-28T07:31:28;9.77;;;5.85;;
76935;SDS011;65881;52.438;16.744;2023-04-28T07:33:53;7.95;;;4.80;;
76935;SDS011;65881;52.438;16.744;2023-04-28T07:36:19;11.32;;;4.63;;
76935;SDS011;65881;52.438;16.744;2023-04-28T07:38:45;6.95;;;4.75;;
76935;SDS011;65881;52.438;16.744;2023-04-28T07:41:11;8.23;;;5.18;;
76935;SDS011;65881;52.438;16.744;2023-04-28T07:43:37;9.85;;;5.40;;
76935;SDS011;65881;52.438;16.744;2023-04-28T07:46:05;6.13;;;4.43;;
76935;SDS011;65881;52.438;16.744;2023-04-28T07:48:32;9.52;;;5.00;;
76935;SDS011;65881;52.438;16.744;2023-04-28T07:50:59;9.70;;;6.13;;
76935;SDS011;65881;52.438;16.744;2023-04-28T07:53:24;9.40;;;5.05;;
76935;SDS011;65881;52.438;16.744;2023-04-28T07:55:53;7.32;;;4.63;;
76935;SDS011;65881;52.438;16.744;2023-04-28T07:58:19;6.00;;;4.20;;
76935;SDS011;65881;52.438;16.744;2023-04-28T08:00:45;6.80;;;4.32;;
76935;SDS011;65881;52.438;16.744;2023-04-28T08:03:11;9.38;;;5.38;;
76935;SDS011;65881;52.438;16.744;2023-04-28T08:05:39;8.95;;;4.60;;
76935;SDS011;65881;52.438;16.744;2023-04-28T08:08:08;9.23;;;5.70;;
76935;SDS011;65881;52.438;16.744;2023-04-28T08:10:33;8.80;;;5.35;;
76935;SDS011;65881;52.438;16.744;2023-04-28T08:13:06;9.25;;;5.28;;
76935;SDS011;65881;52.438;16.744;2023-04-28T08:15:33;11.30;;;6.93;;
76935;SDS011;65881;52.438;16.744;2023-04-28T08:18:02;11.23;;;6.55;;
76935;SDS011;65881;52.438;16.744;2023-04-28T08:22:58;11.43;;;6.65;;
76935;SDS011;65881;52.438;16.744;2023-04-28T08:29:02;8.63;;;5.40;;
76935;SDS011;65881;52.438;16.744;2023-04-28T08:31:28;12.32;;;6.53;;
76935;SDS011;65881;52.438;16.744;2023-04-28T08:33:53;9.48;;;5.90;;
76935;SDS011;65881;52.438;16.744;2023-04-28T08:36:19;7.70;;;5.75;;
76935;SDS011;65881;52.438;16.744;2023-04-28T08:38:45;7.95;;;5.90;;
76935;SDS011;65881;52.438;16.744;2023-04-28T08:41:32;9.52;;;6.05;;
76935;SDS011;65881;52.438;16.744;2023-04-28T08:44:05;14.05;;;6.18;;
76935;SDS011;65881;52.438;16.744;2023-04-28T08:46:33;9.98;;;6.47;;
76935;SDS011;65881;52.438;16.744;2023-04-28T08:49:10;8.25;;;6.38;;
76935;SDS011;65881;52.438;16.744;2023-04-28T08:51:53;10.30;;;5.93;;
76935;SDS011;65881;52.438;16.744;2023-04-28T08:57:07;6.90;;;5.38;;
76935;SDS011;65881;52.438;16.744;2023-04-28T08:59:50;12.30;;;6.10;;
76935;SDS011;65881;52.438;16.744;2023-04-28T09:02:18;8.68;;;6.63;;
76935;SDS011;65881;52.438;16.744;2023-04-28T09:04:46;8.90;;;7.20;;
76935;SDS011;65881;52.438;16.744;2023-04-28T09:07:12;9.68;;;6.82;;
76935;SDS011;65881;52.438;16.744;2023-04-28T09:09:38;12.55;;;6.63;;
76935;SDS011;65881;52.438;16.744;2023-04-28T09:12:05;9.32;;;5.90;;
76935;SDS011;65881;52.438;16.744;2023-04-28T09:17:11;9.45;;;5.82;;
76935;SDS011;65881;52.438;16.744;2023-04-28T09:19:38;8.48;;;6.38;;
76935;SDS011;65881;52.438;16.744;2023-04-28T09:22:06;11.32;;;5.97;;
76935;SDS011;65881;52.438;16.744;2023-04-28T09:24:42;7.95;;;6.75;;
76935;SDS011;65881;52.438;16.744;2023-04-28T09:27:10;9.73;;;6.53;;
76935;SDS011;65881;52.438;16.744;2023-04-28T09:29:52;9.70;;;7.20;;
76935;SDS011;65881;52.438;16.744;2023-04-28T09:32:19;9.75;;;6.85;;
76935;SDS011;65881;52.438;16.744;2023-04-28T09:37:22;9.63;;;7.63;;
76935;SDS011;65881;52.438;16.744;2023-04-28T09:39:50;9.27;;;6.57;;
76935;SDS011;65881;52.438;16.744;2023-04-28T09:42:34;11.30;;;7.07;;
76935;SDS011;65881;52.438;16.744;2023-04-28T09:45:08;9.57;;;6.38;;
76935;SDS011;65881;52.438;16.744;2023-04-28T09:47:46;9.63;;;6.50;;
76935;SDS011;65881;52.438;16.744;2023-04-28T09:50:13;8.77;;;6.78;;
76935;SDS011;65881;52.438;16.744;2023-04-28T09:52:54;8.73;;;6.85;;
76935;SDS011;65881;52.438;16.744;2023-04-28T09:55:21;12.52;;;6.68;;
76935;SDS011;65881;52.438;16.744;2023-04-28T09:57:48;13.15;;;7.80;;
76935;SDS011;65881;52.438;16.744;2023-04-28T10:00:17;11.57;;;7.72;;
76935;SDS011;65881;52.438;16.744;2023-04-28T10:02:53;10.93;;;7.55;;
76935;SDS011;65881;52.438;16.744;2023-04-28T10:05:22;10.73;;;7.60;;
76935;SDS011;65881;52.438;16.744;2023-04-28T10:07:52;10.68;;;7.57;;
76935;SDS011;65881;52.438;16.744;2023-04-28T10:10:24;8.75;;;7.95;;
76935;SDS011;65881;52.438;16.744;2023-04-28T10:12:51;10.27;;;7.40;;
76935;SDS011;65881;52.438;16.744;2023-04-28T10:15:17;10.90;;;6.97;;
76935;SDS011;65881;52.438;16.744;2023-04-28T10:17:42;10.23;;;6.93;;
76935;SDS011;65881;52.438;16.744;2023-04-28T10:20:09;13.57;;;8.07;;
76935;SDS011;65881;52.438;16.744;2023-04-28T10:25:19;12.05;;;8.07;;
76935;SDS011;65881;52.438;16.744;2023-04-28T10:37:19;11.25;;;8.38;;
76935;SDS011;65881;52.438;16.744;2023-04-28T10:43:32;13.02;;;9.40;;
76935;SDS011;65881;52.438;16.744;2023-04-28T10:56:22;10.93;;;9.23;;
76935;SDS011;65881;52.438;16.744;2023-04-28T10:58:50;10.93;;;9.52;;
76935;SDS011;65881;52.438;16.744;2023-04-28T11:03:49;13.45;;;8.50;;
76935;SDS011;65881;52.438;16.744;2023-04-28T11:12:18;11.63;;;9.13;;
76935;SDS011;65881;52.438;16.744;2023-04-28T11:14:47;13.90;;;10.00;;
76935;SDS011;65881;52.438;16.744;2023-04-28T11:17:13;11.07;;;8.77;;
76935;SDS011;65881;52.438;16.744;2023-04-28T11:19:49;13.50;;;10.60;;
76935;SDS011;65881;52.438;16.744;2023-04-28T11:22:22;11.93;;;8.88;;
76935;SDS011;65881;52.438;16.744;2023-04-28T11:25:00;11.90;;;10.15;;
76935;SDS011;65881;52.438;16.744;2023-04-28T11:27:30;10.55;;;9.48;;
76935;SDS011;65881;52.438;16.744;2023-04-28T11:30:33;18.48;;;10.18;;
76935;SDS011;65881;52.438;16.744;2023-04-28T11:33:14;13.43;;;10.35;;
76935;SDS011;65881;52.438;16.744;2023-04-28T11:35:40;13.70;;;10.80;;
76935;SDS011;65881;52.438;16.744;2023-04-28T11:38:29;22.10;;;11.15;;
76935;SDS011;65881;52.438;16.744;2023-04-28T11:40:55;11.95;;;8.95;;
76935;SDS011;65881;52.438;16.744;2023-04-28T11:43:37;13.93;;;9.85;;
76935;SDS011;65881;52.438;16.744;2023-04-28T11:52:10;10.48;;;8.60;;
76935;SDS011;65881;52.438;16.744;2023-04-28T11:54:55;13.07;;;10.35;;
76935;SDS011;65881;52.438;16.744;2023-04-28T11:57:26;13.43;;;9.55;;
76935;SDS011;65881;52.438;16.744;2023-04-28T12:00:12;12.10;;;10.40;;
76935;SDS011;65881;52.438;16.744;2023-04-28T12:44:04;13.65;;;9.75;;
76935;SDS011;65881;52.438;16.744;2023-04-28T12:46:31;12.18;;;9.63;;
76935;SDS011;65881;52.438;16.744;2023-04-28T12:49:04;15.38;;;9.90;;
76935;SDS011;65881;52.438;16.744;2023-04-28T12:51:33;11.95;;;9.15;;
76935;SDS011;65881;52.438;16.744;2023-04-28T12:54:02;18.92;;;10.43;;
76935;SDS011;65881;52.438;16.744;2023-04-28T12:56:30;16.30;;;10.68;;
76935;SDS011;65881;52.438;16.744;2023-04-28T12:59:33;11.95;;;10.60;;
76935;SDS011;65881;52.438;16.744;2023-04-28T13:02:11;12.27;;;10.65;;
76935;SDS011;65881;52.438;16.744;2023-04-28T13:04:54;16.25;;;10.80;;
76935;SDS011;65881;52.438;16.744;2023-04-28T13:10:36;14.43;;;11.93;;
76935;SDS011;65881;52.438;16.744;2023-04-28T13:19:39;13.88;;;10.73;;
76935;SDS011;65881;52.438;16.744;2023-04-28T13:25:28;15.20;;;10.65;;
76935;SDS011;65881;52.438;16.744;2023-04-28T13:28:03;13.20;;;10.35;;
76935;SDS011;65881;52.438;16.744;2023-04-28T13:55:51;15.02;;;10.00;;
76935;SDS011;65881;52.438;16.744;2023-04-28T13:58:18;10.88;;;8.55;;
76935;SDS011;65881;52.438;16.744;2023-04-28T14:00:50;15.70;;;9.82;;
76935;SDS011;65881;52.438;16.744;2023-04-28T14:05:53;12.25;;;9.25;;
76935;SDS011;65881;52.438;16.744;2023-04-28T14:08:57;13.00;;;8.10;;
76935;SDS011;65881;52.438;16.744;2023-04-28T14:11:22;11.43;;;9.27;;
76935;SDS011;65881;52.438;16.744;2023-04-28T14:13:48;11.05;;;8.45;;
76935;SDS011;65881;52.438;16.744;2023-04-28T14:16:26;13.65;;;8.45;;
76935;SDS011;65881;52.438;16.744;2023-04-28T14:19:05;17.17;;;9.90;;
76935;SDS011;65881;52.438;16.744;2023-04-28T14:21:35;10.57;;;7.85;;
76935;SDS011;65881;52.438;16.744;2023-04-28T14:24:12;9.15;;;8.32;;
76935;SDS011;65881;52.438;16.744;2023-04-28T14:26:53;13.00;;;9.95;;
76935;SDS011;65881;52.438;16.744;2023-04-28T14:29:24;8.60;;;7.50;;
76935;SDS011;65881;52.438;16.744;2023-04-28T14:32:02;9.93;;;7.35;;
76935;SDS011;65881;52.438;16.744;2023-04-28T14:34:32;9.05;;;7.85;;
76935;SDS011;65881;52.438;16.744;2023-04-28T14:36:58;14.23;;;8.05;;
76935;SDS011;65881;52.438;16.744;2023-04-28T14:39:26;10.23;;;7.72;;
76935;SDS011;65881;52.438;16.744;2023-04-28T14:41:53;12.00;;;7.45;;
76935;SDS011;65881;52.438;16.744;2023-04-28T14:44:20;10.60;;;6.88;;
76935;SDS011;65881;52.438;16.744;2023-04-28T14:46:54;11.38;;;7.15;;
76935;SDS011;65881;52.438;16.744;2023-04-28T14:49:25;10.55;;;8.02;;
76935;SDS011;65881;52.438;16.744;2023-04-28T14:51:52;11.60;;;7.68;;
76935;SDS011;65881;52.438;16.744;2023-04-28T14:54:23;9.35;;;7.85;;
76935;SDS011;65881;52.438;16.744;2023-04-28T14:56:50;11.88;;;6.97;;
76935;SDS011;65881;52.438;16.744;2023-04-28T15:01:51;11.18;;;7.95;;
76935;SDS011;65881;52.438;16.744;2023-04-28T15:04:17;8.02;;;6.65;;
76935;SDS011;65881;52.438;16.744;2023-04-28T15:06:43;9.50;;;7.68;;
76935;SDS011;65881;52.438;16.744;2023-04-28T15:09:08;11.50;;;7.63;;
76935;SDS011;65881;52.438;16.744;2023-04-28T15:14:13;9.38;;;7.80;;
76935;SDS011;65881;52.438;16.744;2023-04-28T15:16:39;11.00;;;7.05;;
76935;SDS011;65881;52.438;16.744;2023-04-28T15:22:08;9.52;;;6.63;;
76935;SDS011;65881;52.438;16.744;2023-04-28T15:24:34;8.77;;;7.63;;
76935;SDS011;65881;52.438;16.744;2023-04-28T15:27:15;10.57;;;6.97;;
76935;SDS011;65881;52.438;16.744;2023-04-28T15:29:41;7.38;;;6.00;;
76935;SDS011;65881;52.438;16.744;2023-04-28T15:32:06;12.15;;;7.75;;
76935;SDS011;65881;52.438;16.744;2023-04-28T15:34:32;11.02;;;7.20;;
76935;SDS011;65881;52.438;16.744;2023-04-28T15:36:58;11.30;;;6.95;;
76935;SDS011;65881;52.438;16.744;2023-04-28T15:39:24;11.70;;;6.75;;
